sensor_id;sensor_type;location;lat;lon;timestamp;P1;durP1;ratioP1;P2;durP2;ratioP2
9280;SDS011;4679;47.966;7.958;2022-10-16T06:04:22;2.90;;;1.10;;
9280;SDS011;4679;47.966;7.958;2022-10-16T06:06:25;2.50;;;1.50;;
9280;SDS011;4679;47.966;7.958;2022-10-16T06:08:27;2.90;;;1.40;;
9280;SDS011;4679;47.966;7.958;2022-10-16T06:10:29;3.73;;;1.13;;
9280;SDS011;4679;47.966;7.958;2022-10-16T06:12:31;3.57;;;0.90;;
9280;SDS011;4679;47.966;7.958;2022-10-16T06:14:32;3.00;;;0.70;;
9280;SDS011;4679;47.966;7.958;2022-10-16T06:16:34;2.20;;;0.90;;
9280;SDS011;4679;47.966;7.958;2022-10-16T06:18:37;1.13;;;0.83;;
9280;SDS011;4679;47.966;7.958;2022-10-16T06:20:40;7.67;;;1.20;;
9280;SDS011;4679;47.966;7.958;2022-10-16T06:22:42;6.23;;;1.33;;
9280;SDS011;4679;47.966;7.958;2022-10-16T06:24:43;1.00;;;1.00;;
9280;SDS011;4679;47.966;7.958;2022-10-16T06:26:46;2.10;;;0.80;;
9280;SDS011;4679;47.966;7.958;2022-10-16T06:28:48;1.63;;;0.70;;
9280;SDS011;4679;47.966;7.958;2022-10-16T06:30:58;1.70;;;0.70;;
9280;SDS011;4679;47.966;7.958;2022-10-16T06:33:00;0.80;;;0.60;;
9280;SDS011;4679;47.966;7.958;2022-10-16T06:35:02;2.60;;;0.63;;
9280;SDS011;4679;47.966;7.958;2022-10-16T06:37:05;1.37;;;0.57;;
9280;SDS011;4679;47.966;7.958;2022-10-16T06:39:07;2.07;;;0.80;;
9280;SDS011;4679;47.966;7.958;2022-10-16T06:41:09;2.00;;;0.70;;
9280;SDS011;4679;47.966;7.958;2022-10-16T06:43:13;2.00;;;0.50;;
9280;SDS011;4679;47.966;7.958;2022-10-16T06:45:15;1.50;;;0.70;;
9280;SDS011;4679;47.966;7.958;2022-10-16T06:47:17;3.80;;;0.73;;
9280;SDS011;4679;47.966;7.958;2022-10-16T06:49:18;1.07;;;0.50;;
9280;SDS011;4679;47.966;7.958;2022-10-16T06:51:23;1.30;;;0.73;;
9280;SDS011;4679;47.966;7.958;2022-10-16T06:53:28;1.20;;;0.60;;
9280;SDS011;4679;47.966;7.958;2022-10-16T06:55:32;0.77;;;0.50;;
9280;SDS011;4679;47.966;7.958;2022-10-16T06:57:33;1.87;;;0.70;;
9280;SDS011;4679;47.966;7.958;2022-10-16T06:59:35;2.20;;;0.60;;
9280;SDS011;4679;47.966;7.958;2022-10-16T07:01:37;1.70;;;0.60;;
9280;SDS011;4679;47.966;7.958;2022-10-16T07:03:39;1.27;;;0.57;;
9280;SDS011;4679;47.966;7.958;2022-10-16T07:05:42;1.40;;;0.60;;
9280;SDS011;4679;47.966;7.958;2022-10-16T07:07:44;3.30;;;0.60;;
9280;SDS011;4679;47.966;7.958;2022-10-16T07:09:47;0.80;;;0.73;;
9280;SDS011;4679;47.966;7.958;2022-10-16T07:11:49;2.27;;;1.33;;
9280;SDS011;4679;47.966;7.958;2022-10-16T07:13:51;1.70;;;0.70;;
9280;SDS011;4679;47.966;7.958;2022-10-16T07:15:53;1.93;;;0.97;;
9280;SDS011;4679;47.966;7.958;2022-10-16T07:17:54;3.13;;;0.90;;
9280;SDS011;4679;47.966;7.958;2022-10-16T07:19:56;2.73;;;0.80;;
9280;SDS011;4679;47.966;7.958;2022-10-16T07:21:58;3.07;;;1.17;;
9280;SDS011;4679;47.966;7.958;2022-10-16T07:24:00;3.67;;;1.03;;
9280;SDS011;4679;47.966;7.958;2022-10-16T07:26:04;2.53;;;0.93;;
9280;SDS011;4679;47.966;7.958;2022-10-16T07:28:06;4.27;;;1.20;;
9280;SDS011;4679;47.966;7.958;2022-10-16T07:30:08;1.40;;;1.20;;
9280;SDS011;4679;47.966;7.958;2022-10-16T07:34:03;2.73;;;1.40;;
9280;SDS011;4679;47.966;7.958;2022-10-16T07:36:05;1.70;;;1.30;;
9280;SDS011;4679;47.966;7.958;2022-10-16T07:38:07;3.20;;;1.50;;
9280;SDS011;4679;47.966;7.958;2022-10-16T07:40:09;2.80;;;1.10;;
9280;SDS011;4679;47.966;7.958;2022-10-16T07:42:11;8.20;;;1.27;;
9280;SDS011;4679;47.966;7.958;2022-10-16T07:44:13;3.97;;;1.30;;
9280;SDS011;4679;47.966;7.958;2022-10-16T07:46:15;5.20;;;1.20;;
9280;SDS011;4679;47.966;7.958;2022-10-16T07:48:17;1.97;;;1.30;;
9280;SDS011;4679;47.966;7.958;2022-10-16T07:50:20;2.77;;;0.73;;
9280;SDS011;4679;47.966;7.958;2022-10-16T07:52:22;2.37;;;0.67;;
9280;SDS011;4679;47.966;7.958;2022-10-16T07:54:24;0.83;;;0.80;;
9280;SDS011;4679;47.966;7.958;2022-10-16T07:56:25;2.77;;;0.87;;
9280;SDS011;4679;47.966;7.958;2022-10-16T07:58:27;1.27;;;0.70;;
9280;SDS011;4679;47.966;7.958;2022-10-16T08:00:29;0.57;;;0.57;;
9280;SDS011;4679;47.966;7.958;2022-10-16T08:02:31;2.37;;;0.53;;
9280;SDS011;4679;47.966;7.958;2022-10-16T08:04:33;3.33;;;0.70;;
9280;SDS011;4679;47.966;7.958;2022-10-16T08:06:36;1.13;;;0.70;;
9280;SDS011;4679;47.966;7.958;2022-10-16T08:08:39;2.00;;;1.00;;
9280;SDS011;4679;47.966;7.958;2022-10-16T08:10:41;2.43;;;0.90;;
9280;SDS011;4679;47.966;7.958;2022-10-16T08:12:43;2.40;;;1.13;;
9280;SDS011;4679;47.966;7.958;2022-10-16T08:14:44;2.10;;;1.00;;
9280;SDS011;4679;47.966;7.958;2022-10-16T08:16:46;1.37;;;1.27;;
9280;SDS011;4679;47.966;7.958;2022-10-16T08:18:48;0.70;;;0.70;;
9280;SDS011;4679;47.966;7.958;2022-10-16T08:20:55;2.20;;;0.97;;
9280;SDS011;4679;47.966;7.958;2022-10-16T08:22:59;0.90;;;0.90;;
9280;SDS011;4679;47.966;7.958;2022-10-16T08:25:01;0.97;;;0.80;;
9280;SDS011;4679;47.966;7.958;2022-10-16T08:27:03;0.80;;;0.80;;
9280;SDS011;4679;47.966;7.958;2022-10-16T08:29:05;2.10;;;0.80;;
9280;SDS011;4679;47.966;7.958;2022-10-16T08:31:08;1.80;;;0.77;;
9280;SDS011;4679;47.966;7.958;2022-10-16T08:33:10;1.60;;;0.70;;
9280;SDS011;4679;47.966;7.958;2022-10-16T08:35:12;0.70;;;0.70;;
9280;SDS011;4679;47.966;7.958;2022-10-16T08:37:14;1.77;;;0.90;;
9280;SDS011;4679;47.966;7.958;2022-10-16T08:39:17;4.33;;;0.70;;
9280;SDS011;4679;47.966;7.958;2022-10-16T08:44:19;1.20;;;1.00;;
9280;SDS011;4679;47.966;7.958;2022-10-16T08:46:35;1.17;;;0.70;;
9280;SDS011;4679;47.966;7.958;2022-10-16T08:48:48;1.80;;;0.70;;
9280;SDS011;4679;47.966;7.958;2022-10-16T08:50:51;1.13;;;0.60;;
9280;SDS011;4679;47.966;7.958;2022-10-16T08:52:54;5.33;;;0.60;;
9280;SDS011;4679;47.966;7.958;2022-10-16T08:54:58;1.77;;;0.63;;
9280;SDS011;4679;47.966;7.958;2022-10-16T08:57:09;2.80;;;0.57;;
9280;SDS011;4679;47.966;7.958;2022-10-16T08:59:13;2.93;;;0.60;;
9280;SDS011;4679;47.966;7.958;2022-10-16T09:01:17;2.83;;;0.60;;
9280;SDS011;4679;47.966;7.958;2022-10-16T09:03:25;1.83;;;0.50;;
9280;SDS011;4679;47.966;7.958;2022-10-16T09:05:44;1.70;;;0.50;;
9280;SDS011;4679;47.966;7.958;2022-10-16T09:07:58;1.07;;;0.40;;
9280;SDS011;4679;47.966;7.958;2022-10-16T09:10:13;2.63;;;0.60;;
9280;SDS011;4679;47.966;7.958;2022-10-16T09:12:26;0.53;;;0.50;;
9280;SDS011;4679;47.966;7.958;2022-10-16T09:14:39;1.50;;;0.50;;
9280;SDS011;4679;47.966;7.958;2022-10-16T09:16:55;2.03;;;0.50;;
9280;SDS011;4679;47.966;7.958;2022-10-16T09:19:03;0.50;;;0.50;;
9280;SDS011;4679;47.966;7.958;2022-10-16T09:21:15;3.00;;;0.60;;
9280;SDS011;4679;47.966;7.958;2022-10-16T09:23:30;3.03;;;0.63;;
9280;SDS011;4679;47.966;7.958;2022-10-16T09:25:36;2.40;;;0.50;;
9280;SDS011;4679;47.966;7.958;2022-10-16T09:27:41;1.50;;;0.50;;
9280;SDS011;4679;47.966;7.958;2022-10-16T09:29:45;1.33;;;0.60;;
9280;SDS011;4679;47.966;7.958;2022-10-16T09:31:47;0.50;;;0.43;;
9280;SDS011;4679;47.966;7.958;2022-10-16T09:33:50;0.40;;;0.40;;
9280;SDS011;4679;47.966;7.958;2022-10-16T09:35:55;1.23;;;0.60;;
9280;SDS011;4679;47.966;7.958;2022-10-16T09:37:59;1.17;;;0.50;;
9280;SDS011;4679;47.966;7.958;2022-10-16T09:40:00;0.40;;;0.40;;
9280;SDS011;4679;47.966;7.958;2022-10-16T09:42:04;2.03;;;0.63;;
9280;SDS011;4679;47.966;7.958;2022-10-16T09:44:06;1.77;;;0.40;;
9280;SDS011;4679;47.966;7.958;2022-10-16T09:46:21;0.80;;;0.60;;
9280;SDS011;4679;47.966;7.958;2022-10-16T09:48:27;1.40;;;0.40;;
9280;SDS011;4679;47.966;7.958;2022-10-16T09:50:33;0.40;;;0.40;;
9280;SDS011;4679;47.966;7.958;2022-10-16T09:52:34;1.27;;;0.40;;
9280;SDS011;4679;47.966;7.958;2022-10-16T09:54:36;0.60;;;0.40;;
9280;SDS011;4679;47.966;7.958;2022-10-16T09:56:38;2.23;;;0.50;;
9280;SDS011;4679;47.966;7.958;2022-10-16T09:58:49;1.63;;;0.50;;
9280;SDS011;4679;47.966;7.958;2022-10-16T10:00:52;0.40;;;0.40;;
9280;SDS011;4679;47.966;7.958;2022-10-16T10:02:55;1.53;;;0.40;;
9280;SDS011;4679;47.966;7.958;2022-10-16T10:04:56;3.20;;;0.40;;
9280;SDS011;4679;47.966;7.958;2022-10-16T10:06:58;0.50;;;0.47;;
9280;SDS011;4679;47.966;7.958;2022-10-16T10:09:03;0.70;;;0.50;;
9280;SDS011;4679;47.966;7.958;2022-10-16T10:11:07;2.30;;;0.50;;
9280;SDS011;4679;47.966;7.958;2022-10-16T10:13:16;0.50;;;0.50;;
9280;SDS011;4679;47.966;7.958;2022-10-16T10:15:21;0.60;;;0.60;;
9280;SDS011;4679;47.966;7.958;2022-10-16T10:17:25;2.00;;;0.33;;
9280;SDS011;4679;47.966;7.958;2022-10-16T10:19:28;1.50;;;0.67;;
9280;SDS011;4679;47.966;7.958;2022-10-16T10:21:32;1.20;;;0.40;;
9280;SDS011;4679;47.966;7.958;2022-10-16T10:23:34;0.60;;;0.50;;
9280;SDS011;4679;47.966;7.958;2022-10-16T10:25:39;0.93;;;0.40;;
9280;SDS011;4679;47.966;7.958;2022-10-16T10:28:05;2.20;;;0.30;;
9280;SDS011;4679;47.966;7.958;2022-10-16T10:30:19;1.23;;;0.40;;
9280;SDS011;4679;47.966;7.958;2022-10-16T10:32:26;1.33;;;0.40;;
9280;SDS011;4679;47.966;7.958;2022-10-16T10:34:36;0.53;;;0.40;;
9280;SDS011;4679;47.966;7.958;2022-10-16T10:36:47;2.30;;;0.50;;
9280;SDS011;4679;47.966;7.958;2022-10-16T10:38:57;1.13;;;0.33;;
9280;SDS011;4679;47.966;7.958;2022-10-16T10:41:04;0.50;;;0.40;;
9280;SDS011;4679;47.966;7.958;2022-10-16T10:43:29;0.30;;;0.30;;
9280;SDS011;4679;47.966;7.958;2022-10-16T10:45:44;1.13;;;0.50;;
9280;SDS011;4679;47.966;7.958;2022-10-16T10:47:52;3.30;;;0.40;;
9280;SDS011;4679;47.966;7.958;2022-10-16T10:50:07;0.30;;;0.30;;
9280;SDS011;4679;47.966;7.958;2022-10-16T10:52:23;2.90;;;0.30;;
9280;SDS011;4679;47.966;7.958;2022-10-16T10:54:38;2.20;;;0.60;;
9280;SDS011;4679;47.966;7.958;2022-10-16T10:56:47;0.37;;;0.30;;
9280;SDS011;4679;47.966;7.958;2022-10-16T10:58:59;1.10;;;0.30;;
9280;SDS011;4679;47.966;7.958;2022-10-16T11:01:12;3.60;;;0.40;;
9280;SDS011;4679;47.966;7.958;2022-10-16T11:03:19;1.37;;;0.30;;
9280;SDS011;4679;47.966;7.958;2022-10-16T11:05:44;1.40;;;0.30;;
9280;SDS011;4679;47.966;7.958;2022-10-16T11:07:52;1.17;;;0.50;;
9280;SDS011;4679;47.966;7.958;2022-10-16T11:10:02;0.30;;;0.30;;
9280;SDS011;4679;47.966;7.958;2022-10-16T11:12:11;1.07;;;0.40;;
9280;SDS011;4679;47.966;7.958;2022-10-16T11:14:18;1.35;;;0.30;;
9280;SDS011;4679;47.966;7.958;2022-10-16T11:16:26;1.27;;;0.38;;
9280;SDS011;4679;47.966;7.958;2022-10-16T11:18:32;3.03;;;0.50;;
9280;SDS011;4679;47.966;7.958;2022-10-16T11:20:42;0.93;;;0.50;;
9280;SDS011;4679;47.966;7.958;2022-10-16T11:22:49;1.60;;;0.40;;
9280;SDS011;4679;47.966;7.958;2022-10-16T11:24:59;0.52;;;0.30;;
9280;SDS011;4679;47.966;7.958;2022-10-16T11:27:07;0.20;;;0.20;;
9280;SDS011;4679;47.966;7.958;2022-10-16T11:29:12;2.10;;;0.30;;
9280;SDS011;4679;47.966;7.958;2022-10-16T11:31:20;1.13;;;0.40;;
9280;SDS011;4679;47.966;7.958;2022-10-16T11:33:30;0.40;;;0.40;;
9280;SDS011;4679;47.966;7.958;2022-10-16T11:35:40;2.28;;;0.40;;
9280;SDS011;4679;47.966;7.958;2022-10-16T11:37:46;0.68;;;0.40;;
9280;SDS011;4679;47.966;7.958;2022-10-16T11:39:50;0.82;;;0.47;;
9280;SDS011;4679;47.966;7.958;2022-10-16T11:41:59;0.40;;;0.40;;
9280;SDS011;4679;47.966;7.958;2022-10-16T11:44:10;2.90;;;0.40;;
9280;SDS011;4679;47.966;7.958;2022-10-16T11:46:20;0.73;;;0.40;;
9280;SDS011;4679;47.966;7.958;2022-10-16T11:48:27;0.70;;;0.40;;
9280;SDS011;4679;47.966;7.958;2022-10-16T11:50:35;0.40;;;0.40;;
9280;SDS011;4679;47.966;7.958;2022-10-16T11:52:41;0.43;;;0.40;;
9280;SDS011;4679;47.966;7.958;2022-10-16T11:54:52;0.40;;;0.40;;
9280;SDS011;4679;47.966;7.958;2022-10-16T11:56:59;2.20;;;0.30;;
9280;SDS011;4679;47.966;7.958;2022-10-16T11:59:13;3.63;;;0.38;;
9280;SDS011;4679;47.966;7.958;2022-10-16T12:01:25;1.05;;;0.47;;
9280;SDS011;4679;47.966;7.958;2022-10-16T12:03:35;0.30;;;0.30;;
9280;SDS011;4679;47.966;7.958;2022-10-16T12:05:50;1.70;;;0.40;;
9280;SDS011;4679;47.966;7.958;2022-10-16T12:08:02;1.60;;;0.40;;
9280;SDS011;4679;47.966;7.958;2022-10-16T12:10:17;1.38;;;0.30;;
9280;SDS011;4679;47.966;7.958;2022-10-16T12:12:25;1.40;;;0.50;;
9280;SDS011;4679;47.966;7.958;2022-10-16T12:14:35;1.38;;;0.30;;
9280;SDS011;4679;47.966;7.958;2022-10-16T12:16:38;1.25;;;0.40;;
9280;SDS011;4679;47.966;7.958;2022-10-16T12:19:09;0.70;;;0.52;;
9280;SDS011;4679;47.966;7.958;2022-10-16T12:21:13;0.20;;;0.20;;
9280;SDS011;4679;47.966;7.958;2022-10-16T12:23:19;2.30;;;0.38;;
9280;SDS011;4679;47.966;7.958;2022-10-16T12:25:24;1.88;;;0.40;;
9280;SDS011;4679;47.966;7.958;2022-10-16T12:27:29;1.38;;;0.30;;
9280;SDS011;4679;47.966;7.958;2022-10-16T12:29:33;1.58;;;0.40;;
9280;SDS011;4679;47.966;7.958;2022-10-16T12:31:37;0.30;;;0.28;;
9280;SDS011;4679;47.966;7.958;2022-10-16T12:33:52;1.48;;;0.30;;
9280;SDS011;4679;47.966;7.958;2022-10-16T12:36:00;1.38;;;0.45;;
9280;SDS011;4679;47.966;7.958;2022-10-16T12:38:05;1.90;;;0.70;;
9280;SDS011;4679;47.966;7.958;2022-10-16T12:40:13;0.40;;;0.40;;
9280;SDS011;4679;47.966;7.958;2022-10-16T12:42:33;0.50;;;0.50;;
9280;SDS011;4679;47.966;7.958;2022-10-16T12:44:35;2.55;;;0.50;;
9280;SDS011;4679;47.966;7.958;2022-10-16T12:46:38;1.38;;;0.60;;
9280;SDS011;4679;47.966;7.958;2022-10-16T12:48:41;1.83;;;0.47;;
9280;SDS011;4679;47.966;7.958;2022-10-16T12:50:46;0.63;;;0.60;;
9280;SDS011;4679;47.966;7.958;2022-10-16T12:52:49;1.08;;;0.80;;
9280;SDS011;4679;47.966;7.958;2022-10-16T12:54:50;1.27;;;0.50;;
9280;SDS011;4679;47.966;7.958;2022-10-16T12:56:57;1.25;;;0.38;;
9280;SDS011;4679;47.966;7.958;2022-10-16T12:59:10;0.60;;;0.50;;
9280;SDS011;4679;47.966;7.958;2022-10-16T13:01:25;1.08;;;0.40;;
9280;SDS011;4679;47.966;7.958;2022-10-16T13:03:41;0.50;;;0.50;;
9280;SDS011;4679;47.966;7.958;2022-10-16T13:05:59;4.05;;;0.50;;
9280;SDS011;4679;47.966;7.958;2022-10-16T13:08:20;0.50;;;0.50;;
9280;SDS011;4679;47.966;7.958;2022-10-16T13:10:38;1.38;;;0.50;;
9280;SDS011;4679;47.966;7.958;2022-10-16T13:12:49;0.30;;;0.30;;
9280;SDS011;4679;47.966;7.958;2022-10-16T13:15:24;0.52;;;0.40;;
9280;SDS011;4679;47.966;7.958;2022-10-16T13:17:37;1.75;;;0.40;;
9280;SDS011;4679;47.966;7.958;2022-10-16T13:19:46;0.90;;;0.40;;
9280;SDS011;4679;47.966;7.958;2022-10-16T13:21:57;1.85;;;0.45;;
9280;SDS011;4679;47.966;7.958;2022-10-16T13:24:09;0.63;;;0.30;;
9280;SDS011;4679;47.966;7.958;2022-10-16T13:26:22;1.63;;;0.30;;
9280;SDS011;4679;47.966;7.958;2022-10-16T13:28:31;5.32;;;1.48;;
9280;SDS011;4679;47.966;7.958;2022-10-16T13:30:37;2.65;;;0.40;;
9280;SDS011;4679;47.966;7.958;2022-10-16T13:32:43;2.15;;;0.40;;
9280;SDS011;4679;47.966;7.958;2022-10-16T13:34:48;1.65;;;0.30;;
9280;SDS011;4679;47.966;7.958;2022-10-16T13:36:50;1.30;;;0.43;;
9280;SDS011;4679;47.966;7.958;2022-10-16T13:39:00;1.83;;;0.50;;
9280;SDS011;4679;47.966;7.958;2022-10-16T13:41:14;0.57;;;0.40;;
9280;SDS011;4679;47.966;7.958;2022-10-16T13:43:17;0.50;;;0.40;;
9280;SDS011;4679;47.966;7.958;2022-10-16T13:45:21;0.95;;;0.30;;
9280;SDS011;4679;47.966;7.958;2022-10-16T13:47:26;1.27;;;0.40;;
9280;SDS011;4679;47.966;7.958;2022-10-16T13:49:28;0.52;;;0.32;;
9280;SDS011;4679;47.966;7.958;2022-10-16T13:51:30;0.57;;;0.50;;
9280;SDS011;4679;47.966;7.958;2022-10-16T13:53:33;0.55;;;0.30;;
9280;SDS011;4679;47.966;7.958;2022-10-16T13:55:37;1.35;;;0.38;;
9280;SDS011;4679;47.966;7.958;2022-10-16T13:57:40;2.28;;;0.32;;
9280;SDS011;4679;47.966;7.958;2022-10-16T13:59:42;0.40;;;0.40;;
9280;SDS011;4679;47.966;7.958;2022-10-16T14:01:44;0.95;;;0.40;;
9280;SDS011;4679;47.966;7.958;2022-10-16T14:03:46;0.35;;;0.35;;
9280;SDS011;4679;47.966;7.958;2022-10-16T14:05:49;0.57;;;0.40;;
9280;SDS011;4679;47.966;7.958;2022-10-16T14:07:53;1.40;;;0.38;;
9280;SDS011;4679;47.966;7.958;2022-10-16T14:09:56;0.73;;;0.35;;
9280;SDS011;4679;47.966;7.958;2022-10-16T14:12:07;2.28;;;0.50;;
9280;SDS011;4679;47.966;7.958;2022-10-16T14:14:11;0.93;;;0.47;;
9280;SDS011;4679;47.966;7.958;2022-10-16T14:16:16;0.52;;;0.40;;
9280;SDS011;4679;47.966;7.958;2022-10-16T14:18:20;0.60;;;0.50;;
9280;SDS011;4679;47.966;7.958;2022-10-16T14:20:24;1.30;;;0.30;;
9280;SDS011;4679;47.966;7.958;2022-10-16T14:22:29;5.43;;;1.10;;
9280;SDS011;4679;47.966;7.958;2022-10-16T14:24:34;0.50;;;0.50;;
9280;SDS011;4679;47.966;7.958;2022-10-16T14:26:41;0.50;;;0.50;;
9280;SDS011;4679;47.966;7.958;2022-10-16T14:28:45;2.30;;;0.43;;
9280;SDS011;4679;47.966;7.958;2022-10-16T14:30:49;0.43;;;0.32;;
9280;SDS011;4679;47.966;7.958;2022-10-16T14:32:53;1.92;;;0.50;;
9280;SDS011;4679;47.966;7.958;2022-10-16T14:34:56;1.30;;;0.40;;
9280;SDS011;4679;47.966;7.958;2022-10-16T14:36:58;4.05;;;0.50;;
9280;SDS011;4679;47.966;7.958;2022-10-16T14:39:13;2.13;;;0.55;;
9280;SDS011;4679;47.966;7.958;2022-10-16T14:41:20;2.40;;;0.43;;
9280;SDS011;4679;47.966;7.958;2022-10-16T14:43:24;0.40;;;0.40;;
9280;SDS011;4679;47.966;7.958;2022-10-16T14:45:34;1.40;;;0.50;;
9280;SDS011;4679;47.966;7.958;2022-10-16T14:47:36;2.35;;;0.55;;
9280;SDS011;4679;47.966;7.958;2022-10-16T14:49:50;1.48;;;0.50;;
9280;SDS011;4679;47.966;7.958;2022-10-16T14:51:53;2.10;;;0.50;;
9280;SDS011;4679;47.966;7.958;2022-10-16T14:53:55;0.93;;;0.45;;
9280;SDS011;4679;47.966;7.958;2022-10-16T14:55:56;6.30;;;0.63;;
9280;SDS011;4679;47.966;7.958;2022-10-16T14:57:58;2.05;;;0.50;;
9280;SDS011;4679;47.966;7.958;2022-10-16T15:00:00;1.45;;;0.50;;
9280;SDS011;4679;47.966;7.958;2022-10-16T15:02:08;1.15;;;0.50;;
9280;SDS011;4679;47.966;7.958;2022-10-16T15:04:29;1.75;;;0.60;;
9280;SDS011;4679;47.966;7.958;2022-10-16T15:06:31;6.00;;;0.95;;
9280;SDS011;4679;47.966;7.958;2022-10-16T15:08:33;2.63;;;0.80;;
9280;SDS011;4679;47.966;7.958;2022-10-16T15:10:35;1.92;;;0.52;;
9280;SDS011;4679;47.966;7.958;2022-10-16T15:12:40;1.48;;;0.70;;
9280;SDS011;4679;47.966;7.958;2022-10-16T15:14:42;1.00;;;0.60;;
9280;SDS011;4679;47.966;7.958;2022-10-16T15:16:44;2.17;;;0.60;;
9280;SDS011;4679;47.966;7.958;2022-10-16T15:18:48;1.45;;;0.60;;
9280;SDS011;4679;47.966;7.958;2022-10-16T15:20:50;1.35;;;0.50;;
9280;SDS011;4679;47.966;7.958;2022-10-16T15:22:52;2.83;;;0.55;;
9280;SDS011;4679;47.966;7.958;2022-10-16T15:24:54;2.42;;;0.60;;
9280;SDS011;4679;47.966;7.958;2022-10-16T15:26:55;3.35;;;0.70;;
9280;SDS011;4679;47.966;7.958;2022-10-16T15:28:57;3.22;;;1.00;;
9280;SDS011;4679;47.966;7.958;2022-10-16T15:30:58;3.15;;;0.55;;
9280;SDS011;4679;47.966;7.958;2022-10-16T15:33:01;2.00;;;0.60;;
9280;SDS011;4679;47.966;7.958;2022-10-16T15:35:07;1.25;;;0.45;;
9280;SDS011;4679;47.966;7.958;2022-10-16T15:37:09;1.23;;;0.50;;
9280;SDS011;4679;47.966;7.958;2022-10-16T15:39:13;4.65;;;0.52;;
9280;SDS011;4679;47.966;7.958;2022-10-16T15:41:16;1.77;;;0.60;;
9280;SDS011;4679;47.966;7.958;2022-10-16T15:43:18;2.83;;;0.50;;
9280;SDS011;4679;47.966;7.958;2022-10-16T15:45:19;2.30;;;0.60;;
9280;SDS011;4679;47.966;7.958;2022-10-16T15:47:21;3.90;;;0.50;;
9280;SDS011;4679;47.966;7.958;2022-10-16T15:49:23;4.03;;;0.70;;
9280;SDS011;4679;47.966;7.958;2022-10-16T15:51:26;0.95;;;0.70;;
9280;SDS011;4679;47.966;7.958;2022-10-16T15:53:29;3.65;;;0.63;;
9280;SDS011;4679;47.966;7.958;2022-10-16T15:55:31;1.23;;;0.45;;
9280;SDS011;4679;47.966;7.958;2022-10-16T15:57:32;4.18;;;1.55;;
9280;SDS011;4679;47.966;7.958;2022-10-16T15:59:34;2.22;;;0.60;;
9280;SDS011;4679;47.966;7.958;2022-10-16T16:01:36;2.50;;;0.50;;
9280;SDS011;4679;47.966;7.958;2022-10-16T16:03:38;1.00;;;0.88;;
9280;SDS011;4679;47.966;7.958;2022-10-16T16:05:40;2.80;;;0.60;;
9280;SDS011;4679;47.966;7.958;2022-10-16T16:07:43;3.00;;;0.80;;
9280;SDS011;4679;47.966;7.958;2022-10-16T16:09:45;2.65;;;0.70;;
9280;SDS011;4679;47.966;7.958;2022-10-16T16:11:47;1.50;;;0.50;;
9280;SDS011;4679;47.966;7.958;2022-10-16T16:13:52;1.30;;;0.40;;
9280;SDS011;4679;47.966;7.958;2022-10-16T16:15:55;5.93;;;2.60;;
9280;SDS011;4679;47.966;7.958;2022-10-16T16:17:57;4.97;;;0.90;;
9280;SDS011;4679;47.966;7.958;2022-10-16T16:19:58;3.15;;;0.70;;
9280;SDS011;4679;47.966;7.958;2022-10-16T16:22:00;4.18;;;0.80;;
9280;SDS011;4679;47.966;7.958;2022-10-16T16:24:03;2.17;;;0.50;;
9280;SDS011;4679;47.966;7.958;2022-10-16T16:26:09;4.43;;;1.03;;
9280;SDS011;4679;47.966;7.958;2022-10-16T16:28:13;1.50;;;0.60;;
9280;SDS011;4679;47.966;7.958;2022-10-16T16:30:15;2.93;;;0.73;;
9280;SDS011;4679;47.966;7.958;2022-10-16T16:32:19;0.60;;;0.60;;
9280;SDS011;4679;47.966;7.958;2022-10-16T16:34:20;1.77;;;0.90;;
9280;SDS011;4679;47.966;7.958;2022-10-16T16:36:22;3.30;;;0.90;;
9280;SDS011;4679;47.966;7.958;2022-10-16T16:38:24;1.57;;;0.90;;
9280;SDS011;4679;47.966;7.958;2022-10-16T16:40:29;5.10;;;0.90;;
9280;SDS011;4679;47.966;7.958;2022-10-16T16:42:30;5.73;;;0.93;;
9280;SDS011;4679;47.966;7.958;2022-10-16T16:44:32;1.73;;;0.70;;
9280;SDS011;4679;47.966;7.958;2022-10-16T16:46:36;2.63;;;0.70;;
9280;SDS011;4679;47.966;7.958;2022-10-16T16:48:39;3.13;;;0.80;;
9280;SDS011;4679;47.966;7.958;2022-10-16T16:50:42;5.10;;;0.83;;
9280;SDS011;4679;47.966;7.958;2022-10-16T16:52:43;4.23;;;0.70;;
9280;SDS011;4679;47.966;7.958;2022-10-16T16:54:45;3.50;;;0.90;;
9280;SDS011;4679;47.966;7.958;2022-10-16T16:56:53;2.97;;;0.67;;
9280;SDS011;4679;47.966;7.958;2022-10-16T16:58:55;2.77;;;0.70;;
9280;SDS011;4679;47.966;7.958;2022-10-16T17:00:57;1.33;;;0.87;;
9280;SDS011;4679;47.966;7.958;2022-10-16T17:03:02;4.33;;;1.10;;
9280;SDS011;4679;47.966;7.958;2022-10-16T17:05:04;5.50;;;0.90;;
9280;SDS011;4679;47.966;7.958;2022-10-16T17:07:06;1.17;;;0.87;;
9280;SDS011;4679;47.966;7.958;2022-10-16T17:09:08;2.33;;;1.00;;
9280;SDS011;4679;47.966;7.958;2022-10-16T17:11:13;4.77;;;0.70;;
9280;SDS011;4679;47.966;7.958;2022-10-16T17:13:18;2.53;;;0.70;;
9280;SDS011;4679;47.966;7.958;2022-10-16T17:15:19;6.97;;;1.90;;
9280;SDS011;4679;47.966;7.958;2022-10-16T17:17:21;3.77;;;1.10;;
9280;SDS011;4679;47.966;7.958;2022-10-16T17:19:23;3.57;;;1.17;;
9280;SDS011;4679;47.966;7.958;2022-10-16T17:21:25;4.27;;;1.17;;
9280;SDS011;4679;47.966;7.958;2022-10-16T17:23:29;3.63;;;1.07;;
9280;SDS011;4679;47.966;7.958;2022-10-16T17:25:31;1.10;;;1.00;;
9280;SDS011;4679;47.966;7.958;2022-10-16T17:27:36;12.63;;;2.63;;
9280;SDS011;4679;47.966;7.958;2022-10-16T17:29:39;2.47;;;0.90;;
9280;SDS011;4679;47.966;7.958;2022-10-16T17:31:40;4.40;;;1.73;;
9280;SDS011;4679;47.966;7.958;2022-10-16T17:33:42;1.40;;;1.07;;
9280;SDS011;4679;47.966;7.958;2022-10-16T17:35:45;6.90;;;1.40;;
9280;SDS011;4679;47.966;7.958;2022-10-16T17:37:47;3.97;;;1.10;;
9280;SDS011;4679;47.966;7.958;2022-10-16T17:39:49;1.17;;;1.00;;
9280;SDS011;4679;47.966;7.958;2022-10-16T17:41:51;4.10;;;0.93;;
9280;SDS011;4679;47.966;7.958;2022-10-16T17:43:53;6.20;;;1.20;;
9280;SDS011;4679;47.966;7.958;2022-10-16T17:45:56;3.63;;;1.40;;
9280;SDS011;4679;47.966;7.958;2022-10-16T17:47:58;3.00;;;1.20;;
9280;SDS011;4679;47.966;7.958;2022-10-16T17:50:00;4.40;;;1.10;;
9280;SDS011;4679;47.966;7.958;2022-10-16T17:52:02;4.90;;;1.00;;
9280;SDS011;4679;47.966;7.958;2022-10-16T17:54:03;2.20;;;1.10;;
9280;SDS011;4679;47.966;7.958;2022-10-16T17:56:06;1.43;;;0.90;;
9280;SDS011;4679;47.966;7.958;2022-10-16T17:58:09;6.73;;;1.10;;
9280;SDS011;4679;47.966;7.958;2022-10-16T18:00:11;5.93;;;1.00;;
9280;SDS011;4679;47.966;7.958;2022-10-16T18:02:15;2.60;;;1.23;;
9280;SDS011;4679;47.966;7.958;2022-10-16T18:04:17;2.90;;;1.03;;
9280;SDS011;4679;47.966;7.958;2022-10-16T18:06:19;4.00;;;1.30;;
9280;SDS011;4679;47.966;7.958;2022-10-16T18:08:22;2.23;;;1.60;;
9280;SDS011;4679;47.966;7.958;2022-10-16T18:10:23;2.70;;;1.30;;
9280;SDS011;4679;47.966;7.958;2022-10-16T18:12:25;2.70;;;0.90;;
9280;SDS011;4679;47.966;7.958;2022-10-16T18:14:27;1.60;;;1.23;;
9280;SDS011;4679;47.966;7.958;2022-10-16T18:16:30;1.70;;;0.90;;
9280;SDS011;4679;47.966;7.958;2022-10-16T18:18:34;2.97;;;1.20;;
9280;SDS011;4679;47.966;7.958;2022-10-16T18:20:36;12.43;;;1.73;;
9280;SDS011;4679;47.966;7.958;2022-10-16T18:22:38;3.30;;;1.10;;
9280;SDS011;4679;47.966;7.958;2022-10-16T18:24:39;4.03;;;1.00;;
9280;SDS011;4679;47.966;7.958;2022-10-16T18:26:41;1.40;;;0.90;;
9280;SDS011;4679;47.966;7.958;2022-10-16T18:28:43;6.00;;;1.30;;
9280;SDS011;4679;47.966;7.958;2022-10-16T18:30:45;4.77;;;1.10;;
9280;SDS011;4679;47.966;7.958;2022-10-16T18:32:55;3.93;;;1.40;;
9280;SDS011;4679;47.966;7.958;2022-10-16T18:34:58;2.20;;;1.20;;
9280;SDS011;4679;47.966;7.958;2022-10-16T18:36:59;1.90;;;1.10;;
9280;SDS011;4679;47.966;7.958;2022-10-16T18:39:02;3.90;;;1.30;;
9280;SDS011;4679;47.966;7.958;2022-10-16T18:41:08;1.93;;;1.83;;
9280;SDS011;4679;47.966;7.958;2022-10-16T18:43:10;5.50;;;1.17;;
9280;SDS011;4679;47.966;7.958;2022-10-16T18:45:12;3.03;;;0.80;;
9280;SDS011;4679;47.966;7.958;2022-10-16T18:47:14;1.10;;;0.90;;
9280;SDS011;4679;47.966;7.958;2022-10-16T18:49:16;2.60;;;1.20;;
9280;SDS011;4679;47.966;7.958;2022-10-16T18:51:20;2.70;;;1.00;;
9280;SDS011;4679;47.966;7.958;2022-10-16T18:53:23;4.00;;;1.00;;
9280;SDS011;4679;47.966;7.958;2022-10-16T18:55:25;1.53;;;1.30;;
9280;SDS011;4679;47.966;7.958;2022-10-16T18:57:28;4.80;;;2.07;;
9280;SDS011;4679;47.966;7.958;2022-10-16T18:59:30;1.03;;;0.90;;
9280;SDS011;4679;47.966;7.958;2022-10-16T19:01:33;4.63;;;1.10;;
9280;SDS011;4679;47.966;7.958;2022-10-16T19:03:38;4.37;;;1.00;;
9280;SDS011;4679;47.966;7.958;2022-10-16T19:05:41;0.90;;;0.70;;